sensor_id;sensor_type;location;lat;lon;timestamp;P1;durP1;ratioP1;P2;durP2;ratioP2
14858;SDS011;7521;51.700;6.874;2023-03-08T00:02:24;43.05;;;26.23;;
14858;SDS011;7521;51.700;6.874;2023-03-08T00:05:29;41.60;;;25.30;;
14858;SDS011;7521;51.700;6.874;2023-03-08T00:08:34;40.35;;;25.25;;
14858;SDS011;7521;51.700;6.874;2023-03-08T00:11:39;41.50;;;25.30;;
14858;SDS011;7521;51.700;6.874;2023-03-08T00:14:44;48.67;;;26.85;;
14858;SDS011;7521;51.700;6.874;2023-03-08T00:17:50;41.37;;;26.27;;
14858;SDS011;7521;51.700;6.874;2023-03-08T00:20:59;47.00;;;27.80;;
14858;SDS011;7521;51.700;6.874;2023-03-08T00:24:04;50.80;;;27.20;;
14858;SDS011;7521;51.700;6.874;2023-03-08T00:27:09;53.97;;;29.60;;
14858;SDS011;7521;51.700;6.874;2023-03-08T00:30:14;46.38;;;27.60;;
14858;SDS011;7521;51.700;6.874;2023-03-08T00:33:20;48.93;;;29.00;;
14858;SDS011;7521;51.700;6.874;2023-03-08T00:36:25;47.15;;;28.33;;
14858;SDS011;7521;51.700;6.874;2023-03-08T00:39:30;50.42;;;27.95;;
14858;SDS011;7521;51.700;6.874;2023-03-08T00:42:35;48.63;;;27.23;;
14858;SDS011;7521;51.700;6.874;2023-03-08T00:45:40;49.47;;;26.85;;
14858;SDS011;7521;51.700;6.874;2023-03-08T00:48:45;41.70;;;24.97;;
14858;SDS011;7521;51.700;6.874;2023-03-08T00:51:51;53.60;;;27.43;;
14858;SDS011;7521;51.700;6.874;2023-03-08T00:54:56;43.97;;;25.30;;
14858;SDS011;7521;51.700;6.874;2023-03-08T00:58:01;45.38;;;25.52;;
14858;SDS011;7521;51.700;6.874;2023-03-08T01:01:07;42.93;;;24.80;;
14858;SDS011;7521;51.700;6.874;2023-03-08T01:04:13;45.63;;;26.03;;
14858;SDS011;7521;51.700;6.874;2023-03-08T01:07:18;45.87;;;25.77;;
14858;SDS011;7521;51.700;6.874;2023-03-08T01:10:23;39.40;;;22.93;;
14858;SDS011;7521;51.700;6.874;2023-03-08T01:13:30;38.50;;;23.33;;
14858;SDS011;7521;51.700;6.874;2023-03-08T01:16:35;34.13;;;20.83;;
14858;SDS011;7521;51.700;6.874;2023-03-08T01:19:40;32.13;;;19.77;;
14858;SDS011;7521;51.700;6.874;2023-03-08T01:22:46;31.03;;;19.50;;
14858;SDS011;7521;51.700;6.874;2023-03-08T01:25:58;33.10;;;20.03;;
14858;SDS011;7521;51.700;6.874;2023-03-08T01:29:03;35.27;;;20.40;;
14858;SDS011;7521;51.700;6.874;2023-03-08T01:32:08;37.22;;;21.45;;
14858;SDS011;7521;51.700;6.874;2023-03-08T01:35:14;33.37;;;20.57;;
14858;SDS011;7521;51.700;6.874;2023-03-08T01:38:19;33.37;;;20.37;;
14858;SDS011;7521;51.700;6.874;2023-03-08T01:41:25;31.85;;;20.38;;
14858;SDS011;7521;51.700;6.874;2023-03-08T01:44:47;32.00;;;19.67;;
14858;SDS011;7521;51.700;6.874;2023-03-08T01:47:52;37.10;;;21.97;;
14858;SDS011;7521;51.700;6.874;2023-03-08T01:50:58;42.40;;;23.87;;
14858;SDS011;7521;51.700;6.874;2023-03-08T01:54:06;40.77;;;23.50;;
14858;SDS011;7521;51.700;6.874;2023-03-08T01:57:14;36.50;;;21.30;;
14858;SDS011;7521;51.700;6.874;2023-03-08T02:00:21;36.37;;;21.03;;
14858;SDS011;7521;51.700;6.874;2023-03-08T02:03:27;38.47;;;22.47;;
14858;SDS011;7521;51.700;6.874;2023-03-08T02:06:32;35.50;;;21.73;;
14858;SDS011;7521;51.700;6.874;2023-03-08T02:09:37;39.80;;;23.03;;
14858;SDS011;7521;51.700;6.874;2023-03-08T02:12:43;33.53;;;21.10;;
14858;SDS011;7521;51.700;6.874;2023-03-08T02:15:48;40.33;;;23.77;;
14858;SDS011;7521;51.700;6.874;2023-03-08T02:18:56;42.43;;;23.00;;
14858;SDS011;7521;51.700;6.874;2023-03-08T02:22:11;49.67;;;26.03;;
14858;SDS011;7521;51.700;6.874;2023-03-08T02:25:17;46.23;;;25.47;;
14858;SDS011;7521;51.700;6.874;2023-03-08T02:28:24;47.53;;;27.83;;
14858;SDS011;7521;51.700;6.874;2023-03-08T02:31:29;48.43;;;25.97;;
14858;SDS011;7521;51.700;6.874;2023-03-08T02:34:34;49.22;;;27.05;;
14858;SDS011;7521;51.700;6.874;2023-03-08T02:37:40;51.67;;;28.42;;
14858;SDS011;7521;51.700;6.874;2023-03-08T02:40:45;50.65;;;28.58;;
14858;SDS011;7521;51.700;6.874;2023-03-08T02:43:50;59.60;;;31.03;;
14858;SDS011;7521;51.700;6.874;2023-03-08T02:46:55;54.47;;;30.58;;
14858;SDS011;7521;51.700;6.874;2023-03-08T02:50:01;56.38;;;29.70;;
14858;SDS011;7521;51.700;6.874;2023-03-08T02:53:06;55.17;;;29.60;;
14858;SDS011;7521;51.700;6.874;2023-03-08T02:56:11;55.57;;;28.57;;
14858;SDS011;7521;51.700;6.874;2023-03-08T02:59:16;50.17;;;28.77;;
14858;SDS011;7521;51.700;6.874;2023-03-08T03:02:21;55.40;;;29.70;;
14858;SDS011;7521;51.700;6.874;2023-03-08T03:05:27;58.20;;;30.95;;
14858;SDS011;7521;51.700;6.874;2023-03-08T03:08:32;56.60;;;29.90;;
14858;SDS011;7521;51.700;6.874;2023-03-08T03:11:38;56.42;;;29.50;;
14858;SDS011;7521;51.700;6.874;2023-03-08T03:14:43;58.97;;;29.00;;
14858;SDS011;7521;51.700;6.874;2023-03-08T03:17:51;54.40;;;29.90;;
14858;SDS011;7521;51.700;6.874;2023-03-08T03:21:01;52.63;;;28.60;;
14858;SDS011;7521;51.700;6.874;2023-03-08T03:24:06;59.20;;;29.27;;
14858;SDS011;7521;51.700;6.874;2023-03-08T03:27:11;52.90;;;30.07;;
14858;SDS011;7521;51.700;6.874;2023-03-08T03:30:16;53.30;;;28.33;;
14858;SDS011;7521;51.700;6.874;2023-03-08T03:33:22;48.70;;;27.20;;
14858;SDS011;7521;51.700;6.874;2023-03-08T03:36:27;53.90;;;28.63;;
14858;SDS011;7521;51.700;6.874;2023-03-08T03:39:36;44.67;;;23.90;;
14858;SDS011;7521;51.700;6.874;2023-03-08T03:42:41;40.27;;;22.57;;
14858;SDS011;7521;51.700;6.874;2023-03-08T03:45:53;40.53;;;21.53;;
14858;SDS011;7521;51.700;6.874;2023-03-08T03:48:58;34.33;;;20.87;;
14858;SDS011;7521;51.700;6.874;2023-03-08T03:52:04;35.45;;;20.95;;
14858;SDS011;7521;51.700;6.874;2023-03-08T03:55:09;35.30;;;20.13;;
14858;SDS011;7521;51.700;6.874;2023-03-08T03:58:14;29.63;;;19.10;;
14858;SDS011;7521;51.700;6.874;2023-03-08T04:01:20;36.20;;;20.80;;
14858;SDS011;7521;51.700;6.874;2023-03-08T04:04:26;31.17;;;20.17;;
14858;SDS011;7521;51.700;6.874;2023-03-08T04:07:31;35.10;;;21.67;;
14858;SDS011;7521;51.700;6.874;2023-03-08T04:10:37;34.80;;;20.00;;
14858;SDS011;7521;51.700;6.874;2023-03-08T04:13:42;29.95;;;19.13;;
14858;SDS011;7521;51.700;6.874;2023-03-08T04:16:47;32.90;;;20.40;;
14858;SDS011;7521;51.700;6.874;2023-03-08T04:19:52;38.85;;;23.00;;
14858;SDS011;7521;51.700;6.874;2023-03-08T04:22:58;38.20;;;22.47;;
14858;SDS011;7521;51.700;6.874;2023-03-08T04:26:03;37.45;;;22.60;;
14858;SDS011;7521;51.700;6.874;2023-03-08T04:29:09;35.33;;;21.97;;
14858;SDS011;7521;51.700;6.874;2023-03-08T04:32:14;36.95;;;22.25;;
14858;SDS011;7521;51.700;6.874;2023-03-08T04:35:19;38.75;;;23.05;;
14858;SDS011;7521;51.700;6.874;2023-03-08T04:38:25;41.13;;;23.87;;
14858;SDS011;7521;51.700;6.874;2023-03-08T04:41:30;39.53;;;24.25;;
14858;SDS011;7521;51.700;6.874;2023-03-08T04:44:35;36.30;;;23.80;;
14858;SDS011;7521;51.700;6.874;2023-03-08T04:47:40;43.72;;;25.00;;
14858;SDS011;7521;51.700;6.874;2023-03-08T04:50:55;42.00;;;25.60;;
14858;SDS011;7521;51.700;6.874;2023-03-08T04:54:01;45.63;;;25.57;;
14858;SDS011;7521;51.700;6.874;2023-03-08T04:57:08;44.33;;;26.97;;
14858;SDS011;7521;51.700;6.874;2023-03-08T05:00:14;41.08;;;25.15;;
14858;SDS011;7521;51.700;6.874;2023-03-08T05:03:19;40.80;;;24.70;;
14858;SDS011;7521;51.700;6.874;2023-03-08T05:06:25;38.40;;;23.93;;
14858;SDS011;7521;51.700;6.874;2023-03-08T05:09:31;40.53;;;25.47;;
14858;SDS011;7521;51.700;6.874;2023-03-08T05:12:36;38.38;;;23.75;;
14858;SDS011;7521;51.700;6.874;2023-03-08T05:15:41;37.85;;;24.48;;
14858;SDS011;7521;51.700;6.874;2023-03-08T05:18:47;40.00;;;24.57;;
14858;SDS011;7521;51.700;6.874;2023-03-08T05:21:52;36.80;;;23.07;;
14858;SDS011;7521;51.700;6.874;2023-03-08T05:24:57;41.97;;;24.40;;
14858;SDS011;7521;51.700;6.874;2023-03-08T05:28:02;38.60;;;23.07;;
14858;SDS011;7521;51.700;6.874;2023-03-08T05:31:12;36.97;;;23.83;;
14858;SDS011;7521;51.700;6.874;2023-03-08T05:34:17;41.03;;;23.50;;
14858;SDS011;7521;51.700;6.874;2023-03-08T05:37:23;46.45;;;26.35;;
14858;SDS011;7521;51.700;6.874;2023-03-08T05:40:30;43.20;;;25.07;;
14858;SDS011;7521;51.700;6.874;2023-03-08T05:43:36;45.50;;;25.77;;
14858;SDS011;7521;51.700;6.874;2023-03-08T05:46:41;44.30;;;27.40;;
14858;SDS011;7521;51.700;6.874;2023-03-08T05:49:46;42.72;;;26.80;;
14858;SDS011;7521;51.700;6.874;2023-03-08T05:52:51;46.70;;;27.63;;
14858;SDS011;7521;51.700;6.874;2023-03-08T05:55:56;49.70;;;28.67;;
14858;SDS011;7521;51.700;6.874;2023-03-08T05:59:01;46.75;;;27.55;;
14858;SDS011;7521;51.700;6.874;2023-03-08T06:02:07;46.67;;;27.47;;
14858;SDS011;7521;51.700;6.874;2023-03-08T06:05:12;46.87;;;27.60;;
14858;SDS011;7521;51.700;6.874;2023-03-08T06:08:17;51.63;;;28.20;;
14858;SDS011;7521;51.700;6.874;2023-03-08T06:11:22;43.30;;;26.42;;
14858;SDS011;7521;51.700;6.874;2023-03-08T06:14:28;45.00;;;26.73;;
14858;SDS011;7521;51.700;6.874;2023-03-08T06:17:33;45.90;;;25.70;;
14858;SDS011;7521;51.700;6.874;2023-03-08T06:20:38;47.17;;;26.23;;
14858;SDS011;7521;51.700;6.874;2023-03-08T06:23:44;44.85;;;27.65;;
14858;SDS011;7521;51.700;6.874;2023-03-08T06:26:49;47.03;;;27.03;;
14858;SDS011;7521;51.700;6.874;2023-03-08T06:29:54;49.10;;;29.17;;
14858;SDS011;7521;51.700;6.874;2023-03-08T06:32:59;48.10;;;27.73;;
14858;SDS011;7521;51.700;6.874;2023-03-08T06:36:06;52.40;;;28.55;;
14858;SDS011;7521;51.700;6.874;2023-03-08T06:39:11;61.33;;;30.97;;
14858;SDS011;7521;51.700;6.874;2023-03-08T06:42:17;57.23;;;32.00;;
14858;SDS011;7521;51.700;6.874;2023-03-08T06:45:23;56.63;;;31.10;;
14858;SDS011;7521;51.700;6.874;2023-03-08T06:48:28;58.65;;;31.05;;
14858;SDS011;7521;51.700;6.874;2023-03-08T06:51:33;64.65;;;31.35;;
14858;SDS011;7521;51.700;6.874;2023-03-08T06:54:38;53.23;;;27.50;;
14858;SDS011;7521;51.700;6.874;2023-03-08T06:57:44;50.17;;;30.43;;
14858;SDS011;7521;51.700;6.874;2023-03-08T07:00:50;54.27;;;29.57;;
14858;SDS011;7521;51.700;6.874;2023-03-08T07:03:56;47.40;;;29.23;;
14858;SDS011;7521;51.700;6.874;2023-03-08T07:07:02;48.47;;;28.17;;
14858;SDS011;7521;51.700;6.874;2023-03-08T07:10:08;50.00;;;27.47;;
14858;SDS011;7521;51.700;6.874;2023-03-08T07:13:18;48.60;;;27.93;;
14858;SDS011;7521;51.700;6.874;2023-03-08T07:16:26;43.67;;;25.80;;
14858;SDS011;7521;51.700;6.874;2023-03-08T07:19:31;44.67;;;25.40;;
14858;SDS011;7521;51.700;6.874;2023-03-08T07:22:36;45.80;;;24.50;;
14858;SDS011;7521;51.700;6.874;2023-03-08T07:25:41;42.37;;;21.87;;
14858;SDS011;7521;51.700;6.874;2023-03-08T07:28:47;38.73;;;21.23;;
14858;SDS011;7521;51.700;6.874;2023-03-08T07:31:54;33.27;;;19.57;;
14858;SDS011;7521;51.700;6.874;2023-03-08T07:34:59;33.20;;;18.17;;
14858;SDS011;7521;51.700;6.874;2023-03-08T07:38:04;28.33;;;16.30;;
14858;SDS011;7521;51.700;6.874;2023-03-08T07:41:09;28.70;;;16.55;;
14858;SDS011;7521;51.700;6.874;2023-03-08T07:44:14;29.97;;;16.93;;
14858;SDS011;7521;51.700;6.874;2023-03-08T07:47:20;31.20;;;17.30;;
14858;SDS011;7521;51.700;6.874;2023-03-08T07:50:25;33.57;;;17.77;;
14858;SDS011;7521;51.700;6.874;2023-03-08T07:53:30;29.37;;;17.23;;
14858;SDS011;7521;51.700;6.874;2023-03-08T07:56:36;28.10;;;14.97;;
14858;SDS011;7521;51.700;6.874;2023-03-08T07:59:41;26.20;;;15.13;;
14858;SDS011;7521;51.700;6.874;2023-03-08T08:02:46;24.02;;;14.52;;
14858;SDS011;7521;51.700;6.874;2023-03-08T08:05:52;21.30;;;12.87;;
14858;SDS011;7521;51.700;6.874;2023-03-08T08:08:57;23.60;;;13.20;;
14858;SDS011;7521;51.700;6.874;2023-03-08T08:12:02;23.42;;;12.98;;
14858;SDS011;7521;51.700;6.874;2023-03-08T08:15:08;23.57;;;13.90;;
14858;SDS011;7521;51.700;6.874;2023-03-08T08:18:13;30.63;;;16.17;;
14858;SDS011;7521;51.700;6.874;2023-03-08T08:21:18;27.02;;;16.08;;
14858;SDS011;7521;51.700;6.874;2023-03-08T08:24:23;27.40;;;15.93;;
14858;SDS011;7521;51.700;6.874;2023-03-08T08:27:29;26.07;;;15.93;;
14858;SDS011;7521;51.700;6.874;2023-03-08T08:30:34;24.45;;;14.85;;
14858;SDS011;7521;51.700;6.874;2023-03-08T08:33:39;28.35;;;14.48;;
14858;SDS011;7521;51.700;6.874;2023-03-08T08:36:44;24.73;;;14.03;;
14858;SDS011;7521;51.700;6.874;2023-03-08T08:39:50;21.43;;;11.97;;
14858;SDS011;7521;51.700;6.874;2023-03-08T08:42:55;21.77;;;12.13;;
14858;SDS011;7521;51.700;6.874;2023-03-08T08:46:00;17.45;;;10.68;;
14858;SDS011;7521;51.700;6.874;2023-03-08T08:49:06;19.27;;;10.20;;
14858;SDS011;7521;51.700;6.874;2023-03-08T08:52:11;19.33;;;11.80;;
14858;SDS011;7521;51.700;6.874;2023-03-08T08:55:16;20.75;;;13.15;;
14858;SDS011;7521;51.700;6.874;2023-03-08T08:58:22;25.05;;;13.68;;
14858;SDS011;7521;51.700;6.874;2023-03-08T09:01:29;22.27;;;12.60;;
14858;SDS011;7521;51.700;6.874;2023-03-08T09:04:34;22.03;;;13.50;;
14858;SDS011;7521;51.700;6.874;2023-03-08T09:07:40;18.80;;;11.80;;
14858;SDS011;7521;51.700;6.874;2023-03-08T09:10:45;19.08;;;12.05;;
14858;SDS011;7521;51.700;6.874;2023-03-08T09:13:50;16.27;;;10.17;;
14858;SDS011;7521;51.700;6.874;2023-03-08T09:16:56;18.43;;;10.13;;
14858;SDS011;7521;51.700;6.874;2023-03-08T09:20:01;15.82;;;9.55;;
14858;SDS011;7521;51.700;6.874;2023-03-08T09:23:06;19.45;;;10.60;;
14858;SDS011;7521;51.700;6.874;2023-03-08T09:26:12;17.47;;;10.00;;
14858;SDS011;7521;51.700;6.874;2023-03-08T09:29:17;15.47;;;9.50;;
14858;SDS011;7521;51.700;6.874;2023-03-08T09:32:23;18.58;;;11.20;;
14858;SDS011;7521;51.700;6.874;2023-03-08T09:35:28;15.33;;;9.83;;
14858;SDS011;7521;51.700;6.874;2023-03-08T09:38:34;15.83;;;9.40;;
14858;SDS011;7521;51.700;6.874;2023-03-08T09:41:50;14.30;;;8.37;;
14858;SDS011;7521;51.700;6.874;2023-03-08T09:48:07;14.13;;;8.67;;
14858;SDS011;7521;51.700;6.874;2023-03-08T09:51:15;13.60;;;8.73;;
14858;SDS011;7521;51.700;6.874;2023-03-08T09:54:22;14.43;;;9.67;;
14858;SDS011;7521;51.700;6.874;2023-03-08T09:57:29;18.33;;;9.63;;
14858;SDS011;7521;51.700;6.874;2023-03-08T10:00:37;17.17;;;10.33;;
14858;SDS011;7521;51.700;6.874;2023-03-08T10:13:33;13.13;;;9.10;;
14858;SDS011;7521;51.700;6.874;2023-03-08T10:16:42;16.00;;;9.43;;
14858;SDS011;7521;51.700;6.874;2023-03-08T10:22:57;12.30;;;8.27;;
14858;SDS011;7521;51.700;6.874;2023-03-08T10:26:10;12.07;;;8.00;;
14858;SDS011;7521;51.700;6.874;2023-03-08T10:29:15;14.03;;;8.83;;
14858;SDS011;7521;51.700;6.874;2023-03-08T10:32:21;11.32;;;7.63;;
14858;SDS011;7521;51.700;6.874;2023-03-08T10:35:37;14.37;;;8.47;;
14858;SDS011;7521;51.700;6.874;2023-03-08T10:38:42;12.60;;;7.93;;
14858;SDS011;7521;51.700;6.874;2023-03-08T10:41:49;11.30;;;8.27;;
14858;SDS011;7521;51.700;6.874;2023-03-08T10:44:59;10.10;;;8.00;;
14858;SDS011;7521;51.700;6.874;2023-03-08T10:48:05;10.90;;;7.80;;
14858;SDS011;7521;51.700;6.874;2023-03-08T10:51:23;9.57;;;6.30;;
14858;SDS011;7521;51.700;6.874;2023-03-08T10:54:29;8.07;;;6.40;;
14858;SDS011;7521;51.700;6.874;2023-03-08T10:57:34;8.83;;;6.20;;
14858;SDS011;7521;51.700;6.874;2023-03-08T11:00:41;8.83;;;6.90;;
14858;SDS011;7521;51.700;6.874;2023-03-08T11:03:56;7.70;;;6.00;;
14858;SDS011;7521;51.700;6.874;2023-03-08T11:07:15;9.40;;;6.50;;
14858;SDS011;7521;51.700;6.874;2023-03-08T11:10:25;8.50;;;6.33;;
14858;SDS011;7521;51.700;6.874;2023-03-08T11:13:32;8.23;;;6.47;;
14858;SDS011;7521;51.700;6.874;2023-03-08T11:20:13;9.17;;;6.97;;
14858;SDS011;7521;51.700;6.874;2023-03-08T11:23:25;7.17;;;5.63;;
14858;SDS011;7521;51.700;6.874;2023-03-08T11:32:45;7.73;;;5.23;;
14858;SDS011;7521;51.700;6.874;2023-03-08T11:35:56;6.40;;;4.90;;
14858;SDS011;7521;51.700;6.874;2023-03-08T11:39:16;6.73;;;5.33;;
14858;SDS011;7521;51.700;6.874;2023-03-08T11:55:54;7.83;;;4.30;;
14858;SDS011;7521;51.700;6.874;2023-03-08T12:05:26;7.13;;;4.43;;
14858;SDS011;7521;51.700;6.874;2023-03-08T12:08:35;6.00;;;4.50;;
14858;SDS011;7521;51.700;6.874;2023-03-08T12:11:45;7.67;;;5.53;;
14858;SDS011;7521;51.700;6.874;2023-03-08T12:14:56;7.13;;;4.83;;
14858;SDS011;7521;51.700;6.874;2023-03-08T12:18:13;7.60;;;5.40;;
14858;SDS011;7521;51.700;6.874;2023-03-08T12:21:22;8.60;;;6.13;;
14858;SDS011;7521;51.700;6.874;2023-03-08T12:30:46;5.78;;;5.00;;
14858;SDS011;7521;51.700;6.874;2023-03-08T12:33:57;5.53;;;4.87;;
14858;SDS011;7521;51.700;6.874;2023-03-08T12:37:03;6.17;;;5.20;;
14858;SDS011;7521;51.700;6.874;2023-03-08T12:43:33;7.20;;;5.23;;
14858;SDS011;7521;51.700;6.874;2023-03-08T12:46:48;7.70;;;5.33;;
14858;SDS011;7521;51.700;6.874;2023-03-08T12:49:54;11.93;;;9.97;;
14858;SDS011;7521;51.700;6.874;2023-03-08T12:53:13;6.70;;;5.33;;
14858;SDS011;7521;51.700;6.874;2023-03-08T12:56:20;7.40;;;5.50;;
14858;SDS011;7521;51.700;6.874;2023-03-08T12:59:35;7.03;;;5.73;;
14858;SDS011;7521;51.700;6.874;2023-03-08T13:02:41;6.60;;;5.50;;
14858;SDS011;7521;51.700;6.874;2023-03-08T13:05:47;7.23;;;5.60;;
14858;SDS011;7521;51.700;6.874;2023-03-08T13:08:58;8.43;;;5.63;;
14858;SDS011;7521;51.700;6.874;2023-03-08T13:18:16;5.88;;;4.05;;
14858;SDS011;7521;51.700;6.874;2023-03-08T13:21:27;6.37;;;4.07;;
14858;SDS011;7521;51.700;6.874;2023-03-08T13:24:40;6.00;;;4.13;;
14858;SDS011;7521;51.700;6.874;2023-03-08T13:31:02;4.37;;;3.63;;
14858;SDS011;7521;51.700;6.874;2023-03-08T13:34:27;5.07;;;2.93;;
14858;SDS011;7521;51.700;6.874;2023-03-08T13:37:33;3.80;;;2.80;;
14858;SDS011;7521;51.700;6.874;2023-03-08T13:40:38;3.95;;;2.40;;
14858;SDS011;7521;51.700;6.874;2023-03-08T13:43:58;4.77;;;3.10;;
14858;SDS011;7521;51.700;6.874;2023-03-08T13:47:12;3.23;;;2.43;;
14858;SDS011;7521;51.700;6.874;2023-03-08T13:50:27;4.30;;;3.30;;
14858;SDS011;7521;51.700;6.874;2023-03-08T13:53:35;5.03;;;3.03;;
14858;SDS011;7521;51.700;6.874;2023-03-08T13:56:41;4.70;;;2.53;;
14858;SDS011;7521;51.700;6.874;2023-03-08T13:59:51;3.53;;;3.00;;
14858;SDS011;7521;51.700;6.874;2023-03-08T14:02:56;5.30;;;3.53;;
14858;SDS011;7521;51.700;6.874;2023-03-08T14:06:02;5.40;;;3.73;;
14858;SDS011;7521;51.700;6.874;2023-03-08T14:09:08;3.80;;;3.10;;
14858;SDS011;7521;51.700;6.874;2023-03-08T14:12:14;4.73;;;3.40;;
14858;SDS011;7521;51.700;6.874;2023-03-08T14:15:21;4.07;;;3.40;;
14858;SDS011;7521;51.700;6.874;2023-03-08T14:18:27;4.60;;;3.03;;
14858;SDS011;7521;51.700;6.874;2023-03-08T14:21:33;4.53;;;3.40;;
14858;SDS011;7521;51.700;6.874;2023-03-08T14:24:38;5.17;;;3.30;;
14858;SDS011;7521;51.700;6.874;2023-03-08T14:27:44;4.43;;;3.53;;
14858;SDS011;7521;51.700;6.874;2023-03-08T14:30:49;4.22;;;2.97;;
14858;SDS011;7521;51.700;6.874;2023-03-08T14:34:01;4.47;;;3.30;;
14858;SDS011;7521;51.700;6.874;2023-03-08T14:37:13;3.57;;;3.03;;
14858;SDS011;7521;51.700;6.874;2023-03-08T14:40:23;5.03;;;4.07;;
14858;SDS011;7521;51.700;6.874;2023-03-08T14:43:30;5.07;;;3.60;;
14858;SDS011;7521;51.700;6.874;2023-03-08T14:46:35;4.27;;;3.37;;
14858;SDS011;7521;51.700;6.874;2023-03-08T14:49:40;4.38;;;3.50;;
14858;SDS011;7521;51.700;6.874;2023-03-08T14:52:46;4.45;;;3.55;;
14858;SDS011;7521;51.700;6.874;2023-03-08T14:55:52;3.70;;;3.13;;
14858;SDS011;7521;51.700;6.874;2023-03-08T14:58:58;6.72;;;4.05;;
14858;SDS011;7521;51.700;6.874;2023-03-08T15:02:07;5.83;;;4.20;;
14858;SDS011;7521;51.700;6.874;2023-03-08T15:05:16;5.37;;;3.97;;
14858;SDS011;7521;51.700;6.874;2023-03-08T15:08:22;6.80;;;4.80;;
14858;SDS011;7521;51.700;6.874;2023-03-08T15:11:28;5.53;;;4.20;;
14858;SDS011;7521;51.700;6.874;2023-03-08T15:14:35;6.77;;;5.03;;
14858;SDS011;7521;51.700;6.874;2023-03-08T15:17:40;6.82;;;4.93;;
14858;SDS011;7521;51.700;6.874;2023-03-08T15:20:46;7.83;;;5.90;;
14858;SDS011;7521;51.700;6.874;2023-03-08T15:23:53;8.07;;;5.83;;
14858;SDS011;7521;51.700;6.874;2023-03-08T15:26:58;8.20;;;5.80;;
14858;SDS011;7521;51.700;6.874;2023-03-08T15:30:04;8.45;;;5.30;;
14858;SDS011;7521;51.700;6.874;2023-03-08T15:33:09;9.23;;;6.00;;
14858;SDS011;7521;51.700;6.874;2023-03-08T15:36:15;8.00;;;6.30;;
14858;SDS011;7521;51.700;6.874;2023-03-08T15:39:20;9.37;;;5.60;;
14858;SDS011;7521;51.700;6.874;2023-03-08T15:42:25;10.48;;;6.40;;
14858;SDS011;7521;51.700;6.874;2023-03-08T15:45:31;7.70;;;5.30;;
14858;SDS011;7521;51.700;6.874;2023-03-08T15:48:36;12.30;;;6.00;;
14858;SDS011;7521;51.700;6.874;2023-03-08T15:51:41;8.77;;;6.20;;
14858;SDS011;7521;51.700;6.874;2023-03-08T15:54:47;7.00;;;5.33;;
14858;SDS011;7521;51.700;6.874;2023-03-08T15:57:53;9.53;;;7.00;;
14858;SDS011;7521;51.700;6.874;2023-03-08T16:00:58;8.60;;;5.70;;
14858;SDS011;7521;51.700;6.874;2023-03-08T16:04:03;8.50;;;6.07;;
14858;SDS011;7521;51.700;6.874;2023-03-08T16:07:08;9.43;;;5.90;;
14858;SDS011;7521;51.700;6.874;2023-03-08T16:10:13;7.38;;;5.03;;
14858;SDS011;7521;51.700;6.874;2023-03-08T16:13:18;8.35;;;5.40;;
14858;SDS011;7521;51.700;6.874;2023-03-08T16:16:25;7.43;;;6.20;;
14858;SDS011;7521;51.700;6.874;2023-03-08T16:19:31;7.30;;;5.68;;
14858;SDS011;7521;51.700;6.874;2023-03-08T16:22:37;7.30;;;5.53;;
14858;SDS011;7521;51.700;6.874;2023-03-08T16:25:42;8.63;;;6.67;;
14858;SDS011;7521;51.700;6.874;2023-03-08T16:28:47;6.20;;;5.53;;
14858;SDS011;7521;51.700;6.874;2023-03-08T16:31:52;8.57;;;5.90;;
14858;SDS011;7521;51.700;6.874;2023-03-08T16:34:58;9.73;;;6.47;;
14858;SDS011;7521;51.700;6.874;2023-03-08T16:38:03;9.13;;;6.40;;
14858;SDS011;7521;51.700;6.874;2023-03-08T16:41:08;8.85;;;6.07;;
14858;SDS011;7521;51.700;6.874;2023-03-08T16:44:18;8.32;;;6.30;;
14858;SDS011;7521;51.700;6.874;2023-03-08T16:47:24;8.33;;;6.30;;
14858;SDS011;7521;51.700;6.874;2023-03-08T16:50:30;7.60;;;5.63;;
14858;SDS011;7521;51.700;6.874;2023-03-08T16:53:35;9.48;;;6.55;;
14858;SDS011;7521;51.700;6.874;2023-03-08T16:56:41;8.55;;;6.25;;
14858;SDS011;7521;51.700;6.874;2023-03-08T16:59:46;9.07;;;6.33;;
14858;SDS011;7521;51.700;6.874;2023-03-08T17:02:52;10.73;;;7.90;;
14858;SDS011;7521;51.700;6.874;2023-03-08T17:05:57;10.13;;;6.80;;
14858;SDS011;7521;51.700;6.874;2023-03-08T17:09:02;10.43;;;6.90;;
14858;SDS011;7521;51.700;6.874;2023-03-08T17:12:08;9.60;;;7.83;;
14858;SDS011;7521;51.700;6.874;2023-03-08T17:15:13;10.10;;;7.93;;
14858;SDS011;7521;51.700;6.874;2023-03-08T17:18:19;10.80;;;8.27;;
14858;SDS011;7521;51.700;6.874;2023-03-08T17:21:24;11.93;;;8.18;;
14858;SDS011;7521;51.700;6.874;2023-03-08T17:24:29;9.07;;;7.87;;
14858;SDS011;7521;51.700;6.874;2023-03-08T17:27:36;11.63;;;10.43;;
14858;SDS011;7521;51.700;6.874;2023-03-08T17:30:41;11.63;;;9.38;;
14858;SDS011;7521;51.700;6.874;2023-03-08T17:33:46;12.27;;;8.13;;
14858;SDS011;7521;51.700;6.874;2023-03-08T17:36:51;10.13;;;8.13;;
14858;SDS011;7521;51.700;6.874;2023-03-08T17:39:57;9.23;;;7.60;;
14858;SDS011;7521;51.700;6.874;2023-03-08T17:43:02;8.82;;;7.18;;
14858;SDS011;7521;51.700;6.874;2023-03-08T17:46:11;10.03;;;7.77;;
14858;SDS011;7521;51.700;6.874;2023-03-08T17:49:17;9.70;;;7.60;;
14858;SDS011;7521;51.700;6.874;2023-03-08T17:52:27;10.60;;;8.03;;
14858;SDS011;7521;51.700;6.874;2023-03-08T17:55:32;12.17;;;9.10;;
14858;SDS011;7521;51.700;6.874;2023-03-08T17:58:37;9.73;;;7.75;;
14858;SDS011;7521;51.700;6.874;2023-03-08T18:01:42;11.33;;;8.47;;
14858;SDS011;7521;51.700;6.874;2023-03-08T18:04:48;11.02;;;8.65;;
14858;SDS011;7521;51.700;6.874;2023-03-08T18:07:54;11.53;;;8.70;;
14858;SDS011;7521;51.700;6.874;2023-03-08T18:10:59;11.83;;;9.47;;
14858;SDS011;7521;51.700;6.874;2023-03-08T18:14:08;9.40;;;7.97;;
14858;SDS011;7521;51.700;6.874;2023-03-08T18:17:14;14.13;;;8.77;;
14858;SDS011;7521;51.700;6.874;2023-03-08T18:20:19;10.47;;;8.67;;
14858;SDS011;7521;51.700;6.874;2023-03-08T18:23:24;12.63;;;9.33;;
14858;SDS011;7521;51.700;6.874;2023-03-08T18:26:29;13.45;;;10.13;;
14858;SDS011;7521;51.700;6.874;2023-03-08T18:29:35;12.43;;;9.38;;
14858;SDS011;7521;51.700;6.874;2023-03-08T18:32:40;12.60;;;9.07;;
14858;SDS011;7521;51.700;6.874;2023-03-08T18:35:53;13.85;;;9.38;;
14858;SDS011;7521;51.700;6.874;2023-03-08T18:38:59;12.17;;;9.37;;
14858;SDS011;7521;51.700;6.874;2023-03-08T18:42:04;12.93;;;9.70;;
14858;SDS011;7521;51.700;6.874;2023-03-08T18:45:09;12.97;;;10.07;;
14858;SDS011;7521;51.700;6.874;2023-03-08T18:48:15;14.83;;;11.33;;
14858;SDS011;7521;51.700;6.874;2023-03-08T18:51:20;17.25;;;12.07;;
14858;SDS011;7521;51.700;6.874;2023-03-08T18:54:25;15.00;;;10.98;;
14858;SDS011;7521;51.700;6.874;2023-03-08T18:57:30;17.83;;;11.67;;
14858;SDS011;7521;51.700;6.874;2023-03-08T19:00:35;15.05;;;11.52;;
14858;SDS011;7521;51.700;6.874;2023-03-08T19:03:41;18.88;;;12.07;;
14858;SDS011;7521;51.700;6.874;2023-03-08T19:06:46;13.63;;;10.57;;
14858;SDS011;7521;51.700;6.874;2023-03-08T19:09:54;13.77;;;11.27;;
14858;SDS011;7521;51.700;6.874;2023-03-08T19:12:59;14.53;;;10.27;;
14858;SDS011;7521;51.700;6.874;2023-03-08T19:16:05;15.05;;;11.30;;
14858;SDS011;7521;51.700;6.874;2023-03-08T19:19:12;15.10;;;11.33;;
14858;SDS011;7521;51.700;6.874;2023-03-08T19:22:18;13.60;;;10.47;;
14858;SDS011;7521;51.700;6.874;2023-03-08T19:25:23;16.53;;;11.70;;
14858;SDS011;7521;51.700;6.874;2023-03-08T19:28:28;15.80;;;11.53;;
14858;SDS011;7521;51.700;6.874;2023-03-08T19:31:34;15.63;;;11.13;;
14858;SDS011;7521;51.700;6.874;2023-03-08T19:34:40;15.00;;;12.00;;
14858;SDS011;7521;51.700;6.874;2023-03-08T19:37:46;15.73;;;12.13;;
14858;SDS011;7521;51.700;6.874;2023-03-08T19:40:51;17.03;;;12.63;;
14858;SDS011;7521;51.700;6.874;2023-03-08T19:43:56;15.90;;;11.93;;